sensor_id;sensor_type;location;lat;lon;timestamp;temperature;humidity
20459;DHT22;10388;52.314;7.938;2023-04-15T00:12:49;5.90;99.90
20459;DHT22;10388;52.314;7.938;2023-04-15T00:16:01;5.90;99.90
20459;DHT22;10388;52.314;7.938;2023-04-15T00:18:57;5.80;99.90
20459;DHT22;10388;52.314;7.938;2023-04-15T00:22:05;5.70;99.90
20459;DHT22;10388;52.314;7.938;2023-04-15T00:25:11;5.70;99.90
20459;DHT22;10388;52.314;7.938;2023-04-15T00:28:07;5.60;99.90
20459;DHT22;10388;52.314;7.938;2023-04-15T00:31:10;5.50;99.90
20459;DHT22;10388;52.314;7.938;2023-04-15T00:34:35;5.40;99.90
20459;DHT22;10388;52.314;7.938;2023-04-15T00:38:00;5.30;99.90
20459;DHT22;10388;52.314;7.938;2023-04-15T00:41:14;5.20;99.90
20459;DHT22;10388;52.314;7.938;2023-04-15T00:44:03;5.10;99.90
20459;DHT22;10388;52.314;7.938;2023-04-15T00:47:05;5.00;99.90
20459;DHT22;10388;52.314;7.938;2023-04-15T00:50:29;5.00;99.90
20459;DHT22;10388;52.314;7.938;2023-04-15T00:56:34;4.80;99.90
20459;DHT22;10388;52.314;7.938;2023-04-15T01:03:06;4.70;99.90
20459;DHT22;10388;52.314;7.938;2023-04-15T01:06:09;4.60;99.90
20459;DHT22;10388;52.314;7.938;2023-04-15T01:22:34;4.60;99.90
20459;DHT22;10388;52.314;7.938;2023-04-15T01:28:36;4.50;99.90
20459;DHT22;10388;52.314;7.938;2023-04-15T01:31:26;4.40;99.90
20459;DHT22;10388;52.314;7.938;2023-04-15T01:34:27;4.40;99.90
20459;DHT22;10388;52.314;7.938;2023-04-15T01:37:53;4.30;99.90
20459;DHT22;10388;52.314;7.938;2023-04-15T01:43:58;4.20;99.90
20459;DHT22;10388;52.314;7.938;2023-04-15T01:47:06;4.10;99.90
20459;DHT22;10388;52.314;7.938;2023-04-15T01:50:37;4.00;99.90
20459;DHT22;10388;52.314;7.938;2023-04-15T01:57:51;3.80;99.90
20459;DHT22;10388;52.314;7.938;2023-04-15T02:08:03;3.60;99.90
20459;DHT22;10388;52.314;7.938;2023-04-15T02:17:58;3.40;99.90
20459;DHT22;10388;52.314;7.938;2023-04-15T02:21:07;3.30;99.90
20459;DHT22;10388;52.314;7.938;2023-04-15T02:24:59;3.20;99.90
20459;DHT22;10388;52.314;7.938;2023-04-15T02:30:49;3.20;99.90
20459;DHT22;10388;52.314;7.938;2023-04-15T02:36:43;3.00;99.90
20459;DHT22;10388;52.314;7.938;2023-04-15T02:42:53;3.00;99.90
20459;DHT22;10388;52.314;7.938;2023-04-15T02:45:48;2.90;99.90
20459;DHT22;10388;52.314;7.938;2023-04-15T02:48:53;2.80;99.90
20459;DHT22;10388;52.314;7.938;2023-04-15T02:51:58;2.80;99.90
20459;DHT22;10388;52.314;7.938;2023-04-15T02:55:19;2.70;99.90
20459;DHT22;10388;52.314;7.938;2023-04-15T03:02:13;2.70;99.90
20459;DHT22;10388;52.314;7.938;2023-04-15T03:08:34;2.50;99.90
20459;DHT22;10388;52.314;7.938;2023-04-15T03:11:28;2.50;99.90
20459;DHT22;10388;52.314;7.938;2023-04-15T03:14:47;2.40;99.90
20459;DHT22;10388;52.314;7.938;2023-04-15T03:17:52;2.40;99.90
20459;DHT22;10388;52.314;7.938;2023-04-15T03:20:48;2.30;99.90
20459;DHT22;10388;52.314;7.938;2023-04-15T03:34:21;2.10;99.90
20459;DHT22;10388;52.314;7.938;2023-04-15T03:36:52;2.10;99.90
20459;DHT22;10388;52.314;7.938;2023-04-15T03:39:22;2.10;99.90
20459;DHT22;10388;52.314;7.938;2023-04-15T03:41:53;2.10;99.90
20459;DHT22;10388;52.314;7.938;2023-04-15T03:44:25;2.00;99.90
20459;DHT22;10388;52.314;7.938;2023-04-15T03:46:55;2.00;99.90
20459;DHT22;10388;52.314;7.938;2023-04-15T03:49:26;2.00;99.90
20459;DHT22;10388;52.314;7.938;2023-04-15T03:51:56;1.90;99.90
20459;DHT22;10388;52.314;7.938;2023-04-15T03:54:27;1.90;99.90
20459;DHT22;10388;52.314;7.938;2023-04-15T03:56:57;1.90;99.90
20459;DHT22;10388;52.314;7.938;2023-04-15T03:59:28;1.80;99.90
20459;DHT22;10388;52.314;7.938;2023-04-15T04:01:58;1.80;99.90
20459;DHT22;10388;52.314;7.938;2023-04-15T04:04:29;1.80;99.90
20459;DHT22;10388;52.314;7.938;2023-04-15T04:06:59;1.80;99.90
20459;DHT22;10388;52.314;7.938;2023-04-15T04:09:30;1.80;99.90
20459;DHT22;10388;52.314;7.938;2023-04-15T04:12:01;1.90;99.90
20459;DHT22;10388;52.314;7.938;2023-04-15T04:14:31;1.90;99.90
20459;DHT22;10388;52.314;7.938;2023-04-15T04:17:02;1.90;99.90
20459;DHT22;10388;52.314;7.938;2023-04-15T04:19:33;1.90;99.90
20459;DHT22;10388;52.314;7.938;2023-04-15T04:22:03;1.90;99.90
20459;DHT22;10388;52.314;7.938;2023-04-15T04:24:34;1.80;99.90
20459;DHT22;10388;52.314;7.938;2023-04-15T04:27:04;1.80;99.90
20459;DHT22;10388;52.314;7.938;2023-04-15T04:29:35;1.90;99.90
20459;DHT22;10388;52.314;7.938;2023-04-15T04:32:05;1.90;99.90
20459;DHT22;10388;52.314;7.938;2023-04-15T04:34:36;1.80;99.90
20459;DHT22;10388;52.314;7.938;2023-04-15T04:37:06;1.80;99.90
20459;DHT22;10388;52.314;7.938;2023-04-15T04:39:37;1.80;99.90
20459;DHT22;10388;52.314;7.938;2023-04-15T04:42:08;1.80;99.90
20459;DHT22;10388;52.314;7.938;2023-04-15T04:44:38;1.80;99.90
20459;DHT22;10388;52.314;7.938;2023-04-15T04:47:09;1.80;99.90
20459;DHT22;10388;52.314;7.938;2023-04-15T04:49:39;1.90;99.90
20459;DHT22;10388;52.314;7.938;2023-04-15T04:52:10;1.90;99.90
20459;DHT22;10388;52.314;7.938;2023-04-15T04:54:41;1.90;99.90
20459;DHT22;10388;52.314;7.938;2023-04-15T04:57:11;1.90;99.90
20459;DHT22;10388;52.314;7.938;2023-04-15T04:59:42;1.90;99.90
20459;DHT22;10388;52.314;7.938;2023-04-15T05:02:13;2.00;99.90
20459;DHT22;10388;52.314;7.938;2023-04-15T05:04:43;2.00;99.90
20459;DHT22;10388;52.314;7.938;2023-04-15T05:07:14;2.00;99.90
20459;DHT22;10388;52.314;7.938;2023-04-15T05:09:45;2.00;99.90
20459;DHT22;10388;52.314;7.938;2023-04-15T05:12:16;2.00;99.90
20459;DHT22;10388;52.314;7.938;2023-04-15T05:14:47;2.10;99.90
20459;DHT22;10388;52.314;7.938;2023-04-15T05:17:18;2.10;99.90
20459;DHT22;10388;52.314;7.938;2023-04-15T05:19:48;2.20;99.90
20459;DHT22;10388;52.314;7.938;2023-04-15T05:22:19;2.30;99.90
20459;DHT22;10388;52.314;7.938;2023-04-15T05:24:49;2.40;99.90
20459;DHT22;10388;52.314;7.938;2023-04-15T05:27:20;2.40;99.90
20459;DHT22;10388;52.314;7.938;2023-04-15T05:29:51;2.50;99.90
20459;DHT22;10388;52.314;7.938;2023-04-15T05:32:22;2.50;99.90
20459;DHT22;10388;52.314;7.938;2023-04-15T05:34:52;2.60;99.90
20459;DHT22;10388;52.314;7.938;2023-04-15T05:37:23;2.70;99.90
20459;DHT22;10388;52.314;7.938;2023-04-15T05:39:54;2.80;99.90
20459;DHT22;10388;52.314;7.938;2023-04-15T05:42:24;2.90;99.90
20459;DHT22;10388;52.314;7.938;2023-04-15T05:44:55;3.00;99.90
20459;DHT22;10388;52.314;7.938;2023-04-15T05:47:25;3.00;99.90
20459;DHT22;10388;52.314;7.938;2023-04-15T05:49:56;3.10;99.90
20459;DHT22;10388;52.314;7.938;2023-04-15T05:52:28;3.20;99.90
20459;DHT22;10388;52.314;7.938;2023-04-15T05:54:59;3.30;99.90
20459;DHT22;10388;52.314;7.938;2023-04-15T05:57:29;3.40;99.90
20459;DHT22;10388;52.314;7.938;2023-04-15T06:00:00;3.50;99.90
20459;DHT22;10388;52.314;7.938;2023-04-15T06:02:30;3.60;99.90
20459;DHT22;10388;52.314;7.938;2023-04-15T06:05:01;3.80;99.90
20459;DHT22;10388;52.314;7.938;2023-04-15T06:07:31;3.90;99.90
20459;DHT22;10388;52.314;7.938;2023-04-15T06:10:03;4.00;99.90
20459;DHT22;10388;52.314;7.938;2023-04-15T06:12:34;4.10;99.90
20459;DHT22;10388;52.314;7.938;2023-04-15T06:15:05;4.20;99.90
20459;DHT22;10388;52.314;7.938;2023-04-15T06:17:36;4.20;99.90
20459;DHT22;10388;52.314;7.938;2023-04-15T06:20:07;4.30;99.90
20459;DHT22;10388;52.314;7.938;2023-04-15T06:22:37;4.40;99.90
20459;DHT22;10388;52.314;7.938;2023-04-15T06:25:08;4.50;99.90
20459;DHT22;10388;52.314;7.938;2023-04-15T06:27:39;4.60;99.90
20459;DHT22;10388;52.314;7.938;2023-04-15T06:30:10;4.70;99.90
20459;DHT22;10388;52.314;7.938;2023-04-15T06:32:41;4.80;99.90
20459;DHT22;10388;52.314;7.938;2023-04-15T06:35:11;4.90;99.90
20459;DHT22;10388;52.314;7.938;2023-04-15T06:37:42;5.00;99.90
20459;DHT22;10388;52.314;7.938;2023-04-15T06:40:13;5.10;99.90
20459;DHT22;10388;52.314;7.938;2023-04-15T06:42:43;5.10;99.90
20459;DHT22;10388;52.314;7.938;2023-04-15T06:45:14;5.20;99.90
20459;DHT22;10388;52.314;7.938;2023-04-15T06:47:45;5.30;99.90
20459;DHT22;10388;52.314;7.938;2023-04-15T06:50:15;5.40;99.90
20459;DHT22;10388;52.314;7.938;2023-04-15T06:52:46;5.50;99.90
20459;DHT22;10388;52.314;7.938;2023-04-15T06:55:17;5.60;99.90
20459;DHT22;10388;52.314;7.938;2023-04-15T06:57:47;5.70;99.90
20459;DHT22;10388;52.314;7.938;2023-04-15T07:00:18;5.70;99.90
20459;DHT22;10388;52.314;7.938;2023-04-15T07:02:50;5.80;99.90
20459;DHT22;10388;52.314;7.938;2023-04-15T07:05:20;5.90;99.90
20459;DHT22;10388;52.314;7.938;2023-04-15T07:07:51;5.90;99.90
20459;DHT22;10388;52.314;7.938;2023-04-15T07:10:22;6.00;99.90
20459;DHT22;10388;52.314;7.938;2023-04-15T07:12:53;6.10;99.90
20459;DHT22;10388;52.314;7.938;2023-04-15T07:15:23;6.10;99.90
20459;DHT22;10388;52.314;7.938;2023-04-15T07:17:54;6.20;99.90
20459;DHT22;10388;52.314;7.938;2023-04-15T07:20:25;6.30;99.90
20459;DHT22;10388;52.314;7.938;2023-04-15T07:22:56;6.40;99.90
20459;DHT22;10388;52.314;7.938;2023-04-15T07:25:27;6.50;99.90
20459;DHT22;10388;52.314;7.938;2023-04-15T07:27:57;6.60;99.90
20459;DHT22;10388;52.314;7.938;2023-04-15T07:30:28;6.70;99.90
20459;DHT22;10388;52.314;7.938;2023-04-15T07:32:59;6.70;99.90
20459;DHT22;10388;52.314;7.938;2023-04-15T07:35:30;6.80;99.90
20459;DHT22;10388;52.314;7.938;2023-04-15T07:38:00;6.80;99.90
20459;DHT22;10388;52.314;7.938;2023-04-15T07:40:32;6.90;99.90
20459;DHT22;10388;52.314;7.938;2023-04-15T07:43:02;7.00;99.90
20459;DHT22;10388;52.314;7.938;2023-04-15T07:45:33;7.10;99.90
20459;DHT22;10388;52.314;7.938;2023-04-15T07:48:05;7.10;99.90
20459;DHT22;10388;52.314;7.938;2023-04-15T07:50:36;7.10;99.90
20459;DHT22;10388;52.314;7.938;2023-04-15T07:53:07;7.10;99.90
20459;DHT22;10388;52.314;7.938;2023-04-15T07:55:37;7.10;99.90
20459;DHT22;10388;52.314;7.938;2023-04-15T07:58:08;7.10;99.90
20459;DHT22;10388;52.314;7.938;2023-04-15T08:00:38;7.10;99.90
20459;DHT22;10388;52.314;7.938;2023-04-15T08:03:09;7.10;99.90
20459;DHT22;10388;52.314;7.938;2023-04-15T08:05:40;7.10;99.90
20459;DHT22;10388;52.314;7.938;2023-04-15T08:08:11;7.00;99.90
20459;DHT22;10388;52.314;7.938;2023-04-15T08:10:42;7.10;99.90
20459;DHT22;10388;52.314;7.938;2023-04-15T08:13:12;7.10;99.90
20459;DHT22;10388;52.314;7.938;2023-04-15T08:15:43;7.20;99.90
20459;DHT22;10388;52.314;7.938;2023-04-15T08:18:13;7.20;99.90
20459;DHT22;10388;52.314;7.938;2023-04-15T08:20:44;7.30;99.90
20459;DHT22;10388;52.314;7.938;2023-04-15T08:23:14;7.30;99.90
20459;DHT22;10388;52.314;7.938;2023-04-15T08:25:45;7.30;99.90
20459;DHT22;10388;52.314;7.938;2023-04-15T08:28:15;7.40;99.90
20459;DHT22;10388;52.314;7.938;2023-04-15T08:30:46;7.50;99.90
20459;DHT22;10388;52.314;7.938;2023-04-15T08:33:17;7.50;99.90
20459;DHT22;10388;52.314;7.938;2023-04-15T08:35:48;7.50;99.90
20459;DHT22;10388;52.314;7.938;2023-04-15T08:38:18;7.40;99.90
20459;DHT22;10388;52.314;7.938;2023-04-15T08:40:49;7.50;99.90
20459;DHT22;10388;52.314;7.938;2023-04-15T08:43:21;7.60;99.90
20459;DHT22;10388;52.314;7.938;2023-04-15T08:45:57;7.70;99.90
20459;DHT22;10388;52.314;7.938;2023-04-15T08:48:31;7.80;99.90
20459;DHT22;10388;52.314;7.938;2023-04-15T08:51:02;7.80;99.90
20459;DHT22;10388;52.314;7.938;2023-04-15T08:53:33;7.80;99.90
20459;DHT22;10388;52.314;7.938;2023-04-15T08:56:06;7.80;99.90
20459;DHT22;10388;52.314;7.938;2023-04-15T08:58:39;7.80;99.90
20459;DHT22;10388;52.314;7.938;2023-04-15T09:01:11;7.90;99.90
20459;DHT22;10388;52.314;7.938;2023-04-15T09:03:43;7.90;99.90
20459;DHT22;10388;52.314;7.938;2023-04-15T09:06:15;7.80;99.90
20459;DHT22;10388;52.314;7.938;2023-04-15T09:08:46;7.90;99.90
20459;DHT22;10388;52.314;7.938;2023-04-15T09:11:17;7.90;99.90
20459;DHT22;10388;52.314;7.938;2023-04-15T09:13:49;7.90;99.90
20459;DHT22;10388;52.314;7.938;2023-04-15T09:16:19;7.90;99.90
20459;DHT22;10388;52.314;7.938;2023-04-15T09:18:50;8.00;99.90
20459;DHT22;10388;52.314;7.938;2023-04-15T09:21:21;8.00;99.90
20459;DHT22;10388;52.314;7.938;2023-04-15T09:26:32;8.20;99.90
20459;DHT22;10388;52.314;7.938;2023-04-15T09:29:11;8.20;99.90
20459;DHT22;10388;52.314;7.938;2023-04-15T09:31:45;8.20;99.90
20459;DHT22;10388;52.314;7.938;2023-04-15T09:34:16;8.20;99.90
20459;DHT22;10388;52.314;7.938;2023-04-15T09:39:17;8.30;99.90
20459;DHT22;10388;52.314;7.938;2023-04-15T09:42:08;8.30;99.90
20459;DHT22;10388;52.314;7.938;2023-04-15T09:44:39;8.30;99.90
20459;DHT22;10388;52.314;7.938;2023-04-15T09:47:29;8.30;99.90
20459;DHT22;10388;52.314;7.938;2023-04-15T09:50:00;8.30;99.90
20459;DHT22;10388;52.314;7.938;2023-04-15T09:52:31;8.30;99.90
20459;DHT22;10388;52.314;7.938;2023-04-15T09:55:02;8.40;99.90
20459;DHT22;10388;52.314;7.938;2023-04-15T09:57:34;8.40;99.90
20459;DHT22;10388;52.314;7.938;2023-04-15T10:00:07;8.40;99.90
20459;DHT22;10388;52.314;7.938;2023-04-15T10:02:41;8.50;99.90
20459;DHT22;10388;52.314;7.938;2023-04-15T10:05:14;8.50;99.90
20459;DHT22;10388;52.314;7.938;2023-04-15T10:07:45;8.50;99.90
20459;DHT22;10388;52.314;7.938;2023-04-15T10:10:16;8.60;99.90
20459;DHT22;10388;52.314;7.938;2023-04-15T10:12:47;8.60;99.90
20459;DHT22;10388;52.314;7.938;2023-04-15T10:15:20;8.60;99.90
20459;DHT22;10388;52.314;7.938;2023-04-15T10:17:52;8.70;99.90
20459;DHT22;10388;52.314;7.938;2023-04-15T10:20:24;8.70;99.90
20459;DHT22;10388;52.314;7.938;2023-04-15T10:22:54;8.70;99.90
20459;DHT22;10388;52.314;7.938;2023-04-15T10:25:26;8.70;99.90
20459;DHT22;10388;52.314;7.938;2023-04-15T10:27:58;8.70;99.90
20459;DHT22;10388;52.314;7.938;2023-04-15T10:30:31;8.80;99.90
20459;DHT22;10388;52.314;7.938;2023-04-15T10:33:03;8.70;99.90
20459;DHT22;10388;52.314;7.938;2023-04-15T10:35:35;8.80;99.90
20459;DHT22;10388;52.314;7.938;2023-04-15T10:38:41;8.80;99.90
20459;DHT22;10388;52.314;7.938;2023-04-15T10:41:20;8.90;99.90
20459;DHT22;10388;52.314;7.938;2023-04-15T10:43:59;8.90;99.90
20459;DHT22;10388;52.314;7.938;2023-04-15T10:46:41;8.90;99.90
20459;DHT22;10388;52.314;7.938;2023-04-15T10:49:14;8.90;99.90
20459;DHT22;10388;52.314;7.938;2023-04-15T10:51:51;8.90;99.90
20459;DHT22;10388;52.314;7.938;2023-04-15T10:59:31;8.90;99.90
20459;DHT22;10388;52.314;7.938;2023-04-15T11:02:06;8.90;99.90
20459;DHT22;10388;52.314;7.938;2023-04-15T11:04:57;8.90;99.90
20459;DHT22;10388;52.314;7.938;2023-04-15T11:12:50;9.10;99.90
20459;DHT22;10388;52.314;7.938;2023-04-15T11:18:25;9.00;99.90
20459;DHT22;10388;52.314;7.938;2023-04-15T11:21:05;8.90;99.90
20459;DHT22;10388;52.314;7.938;2023-04-15T11:23:41;8.90;99.90
20459;DHT22;10388;52.314;7.938;2023-04-15T11:26:16;8.90;99.90
20459;DHT22;10388;52.314;7.938;2023-04-15T11:28:46;9.00;99.90
20459;DHT22;10388;52.314;7.938;2023-04-15T11:31:17;9.10;99.90
20459;DHT22;10388;52.314;7.938;2023-04-15T11:33:59;9.10;99.90
20459;DHT22;10388;52.314;7.938;2023-04-15T11:36:31;9.00;99.90
20459;DHT22;10388;52.314;7.938;2023-04-15T11:39:06;9.00;99.90
20459;DHT22;10388;52.314;7.938;2023-04-15T11:41:36;9.00;99.90
20459;DHT22;10388;52.314;7.938;2023-04-15T11:44:16;9.00;99.90
20459;DHT22;10388;52.314;7.938;2023-04-15T11:46:47;9.00;99.90
20459;DHT22;10388;52.314;7.938;2023-04-15T11:49:28;9.00;99.90
20459;DHT22;10388;52.314;7.938;2023-04-15T11:52:00;8.90;99.90
20459;DHT22;10388;52.314;7.938;2023-04-15T11:54:31;8.90;99.90
20459;DHT22;10388;52.314;7.938;2023-04-15T11:57:01;8.90;99.90
20459;DHT22;10388;52.314;7.938;2023-04-15T11:59:42;8.90;99.90
20459;DHT22;10388;52.314;7.938;2023-04-15T12:02:12;8.90;99.90
20459;DHT22;10388;52.314;7.938;2023-04-15T12:04:43;8.90;99.90
20459;DHT22;10388;52.314;7.938;2023-04-15T12:07:15;8.80;99.90
20459;DHT22;10388;52.314;7.938;2023-04-15T12:09:54;8.80;99.90
20459;DHT22;10388;52.314;7.938;2023-04-15T12:12:27;8.80;99.90
20459;DHT22;10388;52.314;7.938;2023-04-15T12:14:58;8.80;99.90
20459;DHT22;10388;52.314;7.938;2023-04-15T12:17:29;8.90;99.90
20459;DHT22;10388;52.314;7.938;2023-04-15T12:20:00;8.80;99.90
20459;DHT22;10388;52.314;7.938;2023-04-15T12:22:36;8.90;99.90
20459;DHT22;10388;52.314;7.938;2023-04-15T12:25:07;8.90;99.90
20459;DHT22;10388;52.314;7.938;2023-04-15T12:27:37;8.80;99.90
20459;DHT22;10388;52.314;7.938;2023-04-15T12:30:08;8.90;99.90
20459;DHT22;10388;52.314;7.938;2023-04-15T12:32:40;8.90;99.90
20459;DHT22;10388;52.314;7.938;2023-04-15T12:35:12;8.90;99.90
20459;DHT22;10388;52.314;7.938;2023-04-15T12:37:42;8.80;99.90
20459;DHT22;10388;52.314;7.938;2023-04-15T12:40:13;8.80;99.90
20459;DHT22;10388;52.314;7.938;2023-04-15T12:42:43;8.80;99.90
20459;DHT22;10388;52.314;7.938;2023-04-15T12:45:14;8.70;99.90
20459;DHT22;10388;52.314;7.938;2023-04-15T12:47:45;8.60;99.90
20459;DHT22;10388;52.314;7.938;2023-04-15T12:50:15;8.60;99.90
20459;DHT22;10388;52.314;7.938;2023-04-15T12:52:47;8.60;99.90
20459;DHT22;10388;52.314;7.938;2023-04-15T12:55:17;8.60;99.90
20459;DHT22;10388;52.314;7.938;2023-04-15T12:57:48;8.60;99.90
20459;DHT22;10388;52.314;7.938;2023-04-15T13:00:18;8.60;99.90
20459;DHT22;10388;52.314;7.938;2023-04-15T13:02:49;8.60;99.90
20459;DHT22;10388;52.314;7.938;2023-04-15T13:05:19;8.50;99.90
20459;DHT22;10388;52.314;7.938;2023-04-15T13:07:50;8.60;99.90
20459;DHT22;10388;52.314;7.938;2023-04-15T13:10:20;8.50;99.90
20459;DHT22;10388;52.314;7.938;2023-04-15T13:12:51;8.50;99.90
20459;DHT22;10388;52.314;7.938;2023-04-15T13:15:23;8.50;99.90
20459;DHT22;10388;52.314;7.938;2023-04-15T13:17:53;8.50;99.90
20459;DHT22;10388;52.314;7.938;2023-04-15T13:20:24;8.50;99.90
20459;DHT22;10388;52.314;7.938;2023-04-15T13:22:56;8.50;99.90
20459;DHT22;10388;52.314;7.938;2023-04-15T13:25:26;8.40;99.90
20459;DHT22;10388;52.314;7.938;2023-04-15T13:27:57;8.40;99.90
20459;DHT22;10388;52.314;7.938;2023-04-15T13:30:27;8.40;99.90
20459;DHT22;10388;52.314;7.938;2023-04-15T13:32:58;8.30;99.90
20459;DHT22;10388;52.314;7.938;2023-04-15T13:35:30;8.40;99.90
20459;DHT22;10388;52.314;7.938;2023-04-15T13:38:00;8.30;99.90
20459;DHT22;10388;52.314;7.938;2023-04-15T13:40:31;8.40;99.90
20459;DHT22;10388;52.314;7.938;2023-04-15T13:43:01;8.40;99.90
20459;DHT22;10388;52.314;7.938;2023-04-15T13:45:32;8.40;99.90
20459;DHT22;10388;52.314;7.938;2023-04-15T13:48:03;8.40;99.90
20459;DHT22;10388;52.314;7.938;2023-04-15T13:50:34;8.40;99.90
20459;DHT22;10388;52.314;7.938;2023-04-15T13:53:05;8.40;99.90
20459;DHT22;10388;52.314;7.938;2023-04-15T13:55:35;8.40;99.90
20459;DHT22;10388;52.314;7.938;2023-04-15T13:58:08;8.40;99.90
20459;DHT22;10388;52.314;7.938;2023-04-15T14:00:39;8.40;99.90
20459;DHT22;10388;52.314;7.938;2023-04-15T14:03:10;8.40;99.90
20459;DHT22;10388;52.314;7.938;2023-04-15T14:05:40;8.50;99.90
20459;DHT22;10388;52.314;7.938;2023-04-15T14:08:11;8.40;99.90
20459;DHT22;10388;52.314;7.938;2023-04-15T14:10:41;8.40;99.90
20459;DHT22;10388;52.314;7.938;2023-04-15T14:13:15;8.50;99.90
20459;DHT22;10388;52.314;7.938;2023-04-15T14:15:46;8.40;99.90
20459;DHT22;10388;52.314;7.938;2023-04-15T14:18:16;8.40;99.90
20459;DHT22;10388;52.314;7.938;2023-04-15T14:20:47;8.40;99.90
20459;DHT22;10388;52.314;7.938;2023-04-15T14:23:18;8.40;99.90
20459;DHT22;10388;52.314;7.938;2023-04-15T14:25:49;8.40;99.90
20459;DHT22;10388;52.314;7.938;2023-04-15T14:28:20;8.40;99.90
20459;DHT22;10388;52.314;7.938;2023-04-15T14:30:50;8.40;99.90
20459;DHT22;10388;52.314;7.938;2023-04-15T14:33:21;8.40;99.90
20459;DHT22;10388;52.314;7.938;2023-04-15T14:35:52;8.40;99.90
20459;DHT22;10388;52.314;7.938;2023-04-15T14:38:22;8.40;99.90
20459;DHT22;10388;52.314;7.938;2023-04-15T14:40:53;8.40;99.90
20459;DHT22;10388;52.314;7.938;2023-04-15T14:43:23;8.40;99.90
20459;DHT22;10388;52.314;7.938;2023-04-15T14:45:54;8.40;99.90
20459;DHT22;10388;52.314;7.938;2023-04-15T14:48:25;8.40;99.90
20459;DHT22;10388;52.314;7.938;2023-04-15T14:50:55;8.40;99.90
20459;DHT22;10388;52.314;7.938;2023-04-15T14:53:26;8.40;99.90
20459;DHT22;10388;52.314;7.938;2023-04-15T14:55:56;8.40;99.90
20459;DHT22;10388;52.314;7.938;2023-04-15T14:58:27;8.40;99.90
20459;DHT22;10388;52.314;7.938;2023-04-15T15:00:58;8.40;99.90
20459;DHT22;10388;52.314;7.938;2023-04-15T15:03:29;8.40;99.90
20459;DHT22;10388;52.314;7.938;2023-04-15T15:06:00;8.40;99.90
20459;DHT22;10388;52.314;7.938;2023-04-15T15:08:30;8.40;99.90
20459;DHT22;10388;52.314;7.938;2023-04-15T15:11:01;8.40;99.90
20459;DHT22;10388;52.314;7.938;2023-04-15T15:13:32;8.30;99.90
20459;DHT22;10388;52.314;7.938;2023-04-15T15:16:03;8.30;99.90
20459;DHT22;10388;52.314;7.938;2023-04-15T15:18:34;8.40;99.90
20459;DHT22;10388;52.314;7.938;2023-04-15T15:21:05;8.40;99.90
20459;DHT22;10388;52.314;7.938;2023-04-15T15:23:35;8.40;99.90
20459;DHT22;10388;52.314;7.938;2023-04-15T15:26:06;8.40;99.90
20459;DHT22;10388;52.314;7.938;2023-04-15T15:28:36;8.40;99.90
20459;DHT22;10388;52.314;7.938;2023-04-15T15:31:07;8.40;99.90
20459;DHT22;10388;52.314;7.938;2023-04-15T15:33:37;8.40;99.90
20459;DHT22;10388;52.314;7.938;2023-04-15T15:36:09;8.40;99.90
20459;DHT22;10388;52.314;7.938;2023-04-15T15:38:40;8.40;99.90
20459;DHT22;10388;52.314;7.938;2023-04-15T15:41:11;8.40;99.90
20459;DHT22;10388;52.314;7.938;2023-04-15T15:43:41;8.40;99.90
20459;DHT22;10388;52.314;7.938;2023-04-15T15:46:12;8.40;99.90
20459;DHT22;10388;52.314;7.938;2023-04-15T15:48:43;8.40;99.90
20459;DHT22;10388;52.314;7.938;2023-04-15T15:51:13;8.40;99.90
20459;DHT22;10388;52.314;7.938;2023-04-15T15:53:44;8.40;99.90
20459;DHT22;10388;52.314;7.938;2023-04-15T15:56:14;8.40;99.90
20459;DHT22;10388;52.314;7.938;2023-04-15T15:58:45;8.40;99.90
20459;DHT22;10388;52.314;7.938;2023-04-15T16:01:15;8.40;99.90
20459;DHT22;10388;52.314;7.938;2023-04-15T16:03:46;8.30;99.90
20459;DHT22;10388;52.314;7.938;2023-04-15T16:06:17;8.30;99.90
20459;DHT22;10388;52.314;7.938;2023-04-15T16:08:47;8.40;99.90
20459;DHT22;10388;52.314;7.938;2023-04-15T16:11:18;8.40;99.90
20459;DHT22;10388;52.314;7.938;2023-04-15T16:13:48;8.40;99.90
20459;DHT22;10388;52.314;7.938;2023-04-15T16:16:19;8.40;99.90
20459;DHT22;10388;52.314;7.938;2023-04-15T16:18:49;8.40;99.90
20459;DHT22;10388;52.314;7.938;2023-04-15T16:21:20;8.40;99.90
20459;DHT22;10388;52.314;7.938;2023-04-15T16:23:50;8.40;99.90
20459;DHT22;10388;52.314;7.938;2023-04-15T16:26:21;8.40;99.90
20459;DHT22;10388;52.314;7.938;2023-04-15T16:28:52;8.40;99.90
20459;DHT22;10388;52.314;7.938;2023-04-15T16:31:23;8.40;99.90
20459;DHT22;10388;52.314;7.938;2023-04-15T16:33:53;8.40;99.90
20459;DHT22;10388;52.314;7.938;2023-04-15T16:36:24;8.40;99.90
20459;DHT22;10388;52.314;7.938;2023-04-15T16:38:55;8.40;99.90
20459;DHT22;10388;52.314;7.938;2023-04-15T16:41:26;8.40;99.90
20459;DHT22;10388;52.314;7.938;2023-04-15T16:43:57;8.40;99.90
20459;DHT22;10388;52.314;7.938;2023-04-15T16:46:28;8.40;99.90
20459;DHT22;10388;52.314;7.938;2023-04-15T16:48:58;8.40;99.90
20459;DHT22;10388;52.314;7.938;2023-04-15T16:51:29;8.40;99.90
20459;DHT22;10388;52.314;7.938;2023-04-15T16:54:00;8.40;99.90
20459;DHT22;10388;52.314;7.938;2023-04-15T16:56:31;8.50;99.90
20459;DHT22;10388;52.314;7.938;2023-04-15T16:59:02;8.50;99.90
20459;DHT22;10388;52.314;7.938;2023-04-15T17:01:32;8.50;99.90
20459;DHT22;10388;52.314;7.938;2023-04-15T17:04:03;8.50;99.90
20459;DHT22;10388;52.314;7.938;2023-04-15T17:06:34;8.50;99.90
20459;DHT22;10388;52.314;7.938;2023-04-15T17:09:05;8.50;99.90
20459;DHT22;10388;52.314;7.938;2023-04-15T17:11:36;8.50;99.90
20459;DHT22;10388;52.314;7.938;2023-04-15T17:14:09;8.50;99.90
20459;DHT22;10388;52.314;7.938;2023-04-15T17:16:40;8.50;99.90
20459;DHT22;10388;52.314;7.938;2023-04-15T17:19:12;8.50;99.90
20459;DHT22;10388;52.314;7.938;2023-04-15T17:21:43;8.50;99.90
20459;DHT22;10388;52.314;7.938;2023-04-15T17:24:13;8.50;99.90
20459;DHT22;10388;52.314;7.938;2023-04-15T17:26:44;8.50;99.90
20459;DHT22;10388;52.314;7.938;2023-04-15T17:29:16;8.50;99.90
20459;DHT22;10388;52.314;7.938;2023-04-15T17:31:46;8.50;99.90
20459;DHT22;10388;52.314;7.938;2023-04-15T17:34:17;8.50;99.90
20459;DHT22;10388;52.314;7.938;2023-04-15T17:36:47;8.50;99.90
20459;DHT22;10388;52.314;7.938;2023-04-15T17:39:20;8.50;99.90
20459;DHT22;10388;52.314;7.938;2023-04-15T17:41:51;8.50;99.90
20459;DHT22;10388;52.314;7.938;2023-04-15T17:44:21;8.40;99.90
20459;DHT22;10388;52.314;7.938;2023-04-15T17:46:52;8.50;99.90
20459;DHT22;10388;52.314;7.938;2023-04-15T17:49:22;8.50;99.90
20459;DHT22;10388;52.314;7.938;2023-04-15T17:51:53;8.40;99.90
20459;DHT22;10388;52.314;7.938;2023-04-15T17:54:24;8.40;99.90
20459;DHT22;10388;52.314;7.938;2023-04-15T17:56:55;8.40;99.90
20459;DHT22;10388;52.314;7.938;2023-04-15T17:59:27;8.40;99.90
20459;DHT22;10388;52.314;7.938;2023-04-15T18:01:57;8.40;99.90
20459;DHT22;10388;52.314;7.938;2023-04-15T18:04:28;8.50;99.90
20459;DHT22;10388;52.314;7.938;2023-04-15T18:06:59;8.50;99.90
20459;DHT22;10388;52.314;7.938;2023-04-15T18:09:30;8.50;99.90
20459;DHT22;10388;52.314;7.938;2023-04-15T18:12:01;8.40;99.90
20459;DHT22;10388;52.314;7.938;2023-04-15T18:14:32;8.50;99.90
20459;DHT22;10388;52.314;7.938;2023-04-15T18:17:02;8.40;99.90